createdAt,value
2017-10-18T00:02:02.486Z,34.47
2017-10-18T00:04:29.098Z,31.95
2017-10-18T00:06:55.763Z,33.65
2017-10-18T00:09:22.374Z,34.40
2017-10-18T00:11:48.986Z,27.05
2017-10-18T00:14:15.610Z,23.83
2017-10-18T00:16:42.223Z,20.23
2017-10-18T00:19:08.954Z,20.02
2017-10-18T00:21:35.562Z,22.48
2017-10-18T00:24:02.171Z,17.23
2017-10-18T00:26:28.809Z,20.80
2017-10-18T00:28:55.414Z,18.40
2017-10-18T00:31:22.022Z,17.75
2017-10-18T00:33:48.646Z,22.15
2017-10-18T00:36:15.327Z,24.17
2017-10-18T00:38:41.967Z,22.00
2017-10-18T00:41:08.585Z,22.95
2017-10-18T00:43:35.196Z,22.17
2017-10-18T00:46:01.802Z,20.15
2017-10-18T00:48:28.430Z,20.02
2017-10-18T00:50:55.038Z,18.75
2017-10-18T00:53:21.654Z,20.92
2017-10-18T00:55:48.281Z,20.02
2017-10-18T00:58:14.891Z,20.67
2017-10-18T01:00:41.609Z,19.23
2017-10-18T01:03:08.226Z,19.90
2017-10-18T01:05:34.885Z,18.10
2017-10-18T01:08:01.524Z,18.27
2017-10-18T01:10:28.134Z,18.65
2017-10-18T01:12:54.746Z,19.37
2017-10-18T01:15:21.441Z,21.17
2017-10-18T01:17:48.058Z,20.77
2017-10-18T01:20:14.662Z,20.45
2017-10-18T01:22:41.286Z,19.50
2017-10-18T01:25:07.899Z,17.92
2017-10-18T01:27:34.509Z,17.30
2017-10-18T01:30:01.133Z,22.35
2017-10-18T01:32:27.746Z,17.92
2017-10-18T01:34:54.354Z,16.80
2017-10-18T01:37:21.090Z,16.65
2017-10-18T01:39:47.832Z,16.90
2017-10-18T01:42:15.423Z,16.33
2017-10-18T01:44:42.335Z,19.67
2017-10-18T01:47:08.977Z,21.33
2017-10-18T01:49:35.725Z,22.67
2017-10-18T01:52:02.470Z,21.87
2017-10-18T01:54:29.073Z,21.25
2017-10-18T01:56:55.688Z,19.98
2017-10-18T01:59:22.327Z,21.80
2017-10-18T02:01:48.929Z,19.92
2017-10-18T02:04:15.541Z,22.62
2017-10-18T02:06:42.194Z,23.70
2017-10-18T02:09:08.839Z,20.65
2017-10-18T02:11:35.462Z,24.55
2017-10-18T02:14:02.075Z,19.15
2017-10-18T02:16:28.677Z,20.27
2017-10-18T02:18:55.323Z,18.70
2017-10-18T02:21:21.935Z,20.08
2017-10-18T02:23:48.547Z,16.92
2017-10-18T02:26:15.206Z,16.15
2017-10-18T02:28:41.814Z,18.55
2017-10-18T02:31:08.419Z,16.15
2017-10-18T02:33:35.046Z,18.20
2017-10-18T02:36:01.654Z,16.42
2017-10-18T02:38:28.267Z,16.95
2017-10-18T02:40:54.894Z,18.50
2017-10-18T02:43:21.507Z,24.85
2017-10-18T02:45:48.124Z,25.52
2017-10-18T02:48:14.853Z,27.30
2017-10-18T02:50:41.453Z,23.17
2017-10-18T02:53:08.068Z,24.65
2017-10-18T02:55:34.751Z,24.63
2017-10-18T02:58:01.354Z,18.80
2017-10-18T03:00:27.967Z,15.48
2017-10-18T03:02:54.647Z,15.75
2017-10-18T03:05:21.253Z,14.65
2017-10-18T03:07:47.867Z,12.90
2017-10-18T03:10:14.489Z,11.88
2017-10-18T03:12:41.096Z,10.45
2017-10-18T03:15:07.726Z,11.20
2017-10-18T03:17:34.333Z,11.18
2017-10-18T03:20:00.946Z,11.32
2017-10-18T03:22:27.598Z,11.52
2017-10-18T03:24:54.202Z,12.05
2017-10-18T03:27:20.870Z,10.32
2017-10-18T03:29:47.494Z,12.10
2017-10-18T03:32:14.111Z,10.95
2017-10-18T03:34:40.717Z,11.23
2017-10-18T03:37:07.330Z,8.95
2017-10-18T03:39:33.942Z,11.65
2017-10-18T03:42:00.605Z,10.00
2017-10-18T03:44:27.211Z,11.40
2017-10-18T03:46:53.822Z,10.43
2017-10-18T03:49:20.445Z,10.35
2017-10-18T03:51:47.055Z,10.20
2017-10-18T03:54:13.666Z,12.93
2017-10-18T03:56:40.338Z,10.82
2017-10-18T03:59:06.978Z,10.60
2017-10-18T04:01:33.599Z,11.38
2017-10-18T04:04:00.253Z,12.23
2017-10-18T04:06:26.893Z,11.77
2017-10-18T04:08:53.513Z,13.32
2017-10-18T04:11:20.131Z,10.25
2017-10-18T04:13:46.811Z,12.37
2017-10-18T04:16:14.313Z,12.20
2017-10-18T04:18:40.923Z,12.90
2017-10-18T04:21:07.599Z,12.00
2017-10-18T04:23:34.217Z,11.38
2017-10-18T04:26:00.927Z,12.60
2017-10-18T04:28:27.537Z,10.32
2017-10-18T04:30:54.161Z,11.95
2017-10-18T04:33:20.846Z,12.75
2017-10-18T04:35:47.449Z,10.55
2017-10-18T04:38:14.082Z,13.10
2017-10-18T04:40:40.700Z,11.45
2017-10-18T04:43:07.950Z,10.57
2017-10-18T04:45:34.570Z,11.80
2017-10-18T04:48:01.177Z,11.60
2017-10-18T04:50:27.831Z,9.20
2017-10-18T04:52:54.468Z,8.63
2017-10-18T04:55:21.082Z,11.52
2017-10-18T04:57:47.703Z,10.25
2017-10-18T05:00:14.390Z,10.52
2017-10-18T05:02:41.002Z,10.10
2017-10-18T05:05:07.639Z,11.55
2017-10-18T05:07:34.250Z,10.18
2017-10-18T05:10:00.938Z,12.10
2017-10-18T05:12:27.681Z,11.50
2017-10-18T05:14:54.294Z,11.45
2017-10-18T05:17:20.901Z,10.95
2017-10-18T05:19:47.522Z,12.10
2017-10-18T05:22:14.134Z,12.40
2017-10-18T05:24:40.774Z,11.57
2017-10-18T05:27:07.394Z,13.68
2017-10-18T05:29:34.098Z,13.10
2017-10-18T05:32:00.722Z,11.90
2017-10-18T05:34:27.336Z,13.27
2017-10-18T05:36:53.938Z,10.57
2017-10-18T05:39:20.606Z,11.48
2017-10-18T05:41:47.293Z,11.85
2017-10-18T05:44:13.902Z,12.65
2017-10-18T05:46:40.630Z,11.25
2017-10-18T05:49:07.270Z,11.23
2017-10-18T05:51:33.886Z,10.88
2017-10-18T05:54:00.545Z,12.05
2017-10-18T05:56:27.181Z,13.10
2017-10-18T05:58:53.789Z,12.45
2017-10-18T06:01:20.414Z,13.05
2017-10-18T06:03:47.043Z,11.50
2017-10-18T06:06:13.737Z,14.30
2017-10-18T06:08:40.346Z,12.13
2017-10-18T06:11:07.023Z,15.32
2017-10-18T06:13:33.648Z,16.77
2017-10-18T06:16:00.270Z,14.38
2017-10-18T06:18:26.875Z,11.30
2017-10-18T06:20:53.498Z,16.50
2017-10-18T06:23:20.130Z,15.13
2017-10-18T06:25:46.736Z,14.57
2017-10-18T06:28:13.358Z,15.88
2017-10-18T06:30:39.964Z,17.50
2017-10-18T06:33:06.570Z,19.80
2017-10-18T06:35:33.438Z,15.82
2017-10-18T06:38:00.195Z,17.48
2017-10-18T06:40:27.732Z,13.90
2017-10-18T06:42:54.804Z,17.27
2017-10-18T06:45:21.446Z,16.15
2017-10-18T06:47:48.178Z,15.35
2017-10-18T06:50:14.845Z,15.18
2017-10-18T06:52:41.770Z,16.20
2017-10-18T06:55:08.451Z,15.75
2017-10-18T06:57:35.054Z,16.10
2017-10-18T07:00:01.658Z,15.82
2017-10-18T07:02:28.277Z,19.23
2017-10-18T07:04:54.881Z,17.67
2017-10-18T07:07:21.560Z,18.12
2017-10-18T07:09:48.187Z,15.90
2017-10-18T07:12:14.794Z,18.17
2017-10-18T07:14:41.402Z,21.05
2017-10-18T07:17:08.034Z,20.30
2017-10-18T07:19:34.755Z,23.92
2017-10-18T07:22:01.436Z,22.42
2017-10-18T07:24:28.062Z,26.73
2017-10-18T07:26:54.669Z,25.73
2017-10-18T07:29:21.282Z,22.52
2017-10-18T07:31:47.906Z,23.92
2017-10-18T07:34:14.586Z,26.15
2017-10-18T07:36:41.229Z,25.92
2017-10-18T07:39:07.859Z,24.90
2017-10-18T07:41:34.556Z,26.50
2017-10-18T07:44:01.188Z,23.62
2017-10-18T07:46:27.801Z,23.55
2017-10-18T07:48:54.527Z,23.95
2017-10-18T07:51:21.208Z,25.92
2017-10-18T07:53:47.818Z,25.52
2017-10-18T07:56:14.430Z,23.87
2017-10-18T07:58:41.053Z,24.42
2017-10-18T08:01:07.666Z,22.15
2017-10-18T08:03:34.361Z,24.50
2017-10-18T08:06:01.103Z,25.15
2017-10-18T08:08:27.707Z,23.62
2017-10-18T08:10:54.314Z,25.62
2017-10-18T08:13:20.943Z,25.45
2017-10-18T08:15:47.658Z,24.48
2017-10-18T08:18:14.295Z,23.40
2017-10-18T08:20:40.935Z,24.70
2017-10-18T08:23:07.537Z,24.98
2017-10-18T08:25:34.166Z,24.10
2017-10-18T08:28:00.778Z,21.55
2017-10-18T08:30:27.387Z,21.20
2017-10-18T08:32:54.011Z,20.92
2017-10-18T08:35:20.667Z,21.10
2017-10-18T08:37:47.273Z,20.15
2017-10-18T08:40:13.895Z,20.52
2017-10-18T08:42:40.506Z,19.70
2017-10-18T08:45:07.131Z,20.00
2017-10-18T08:47:33.738Z,19.67
2017-10-18T08:50:00.353Z,20.37
2017-10-18T08:52:26.974Z,21.10
2017-10-18T08:54:53.674Z,21.80
2017-10-18T08:57:20.286Z,19.02
2017-10-18T08:59:46.949Z,19.90
2017-10-18T09:02:14.240Z,20.92
2017-10-18T09:04:41.204Z,21.48
2017-10-18T09:07:08.247Z,20.33
2017-10-18T09:09:34.958Z,20.50
2017-10-18T09:12:02.142Z,21.98
2017-10-18T09:14:30.011Z,20.27
2017-10-18T09:16:56.686Z,22.67
2017-10-18T09:19:23.797Z,22.55
2017-10-18T09:21:51.848Z,19.15
2017-10-18T09:24:19.119Z,20.45
2017-10-18T09:26:45.761Z,18.50
2017-10-18T09:29:12.406Z,19.50
2017-10-18T09:31:39.106Z,23.42
2017-10-18T09:34:06.451Z,20.37
2017-10-18T09:36:36.604Z,21.15
2017-10-18T09:39:04.215Z,22.10
2017-10-18T09:41:30.867Z,22.58
2017-10-18T09:43:57.493Z,20.30
2017-10-18T09:46:24.101Z,21.65
2017-10-18T09:48:50.714Z,20.75
2017-10-18T09:51:17.342Z,19.80
2017-10-18T09:53:43.953Z,21.35
2017-10-18T09:56:10.653Z,20.90
2017-10-18T09:58:37.351Z,21.90
2017-10-18T10:01:04.032Z,22.62
2017-10-18T10:03:30.642Z,20.90
2017-10-18T10:05:57.381Z,22.42
2017-10-18T10:08:23.990Z,22.45
2017-10-18T10:10:50.618Z,24.08
2017-10-18T10:13:17.250Z,24.60
2017-10-18T10:15:43.968Z,24.55
2017-10-18T10:18:10.671Z,25.25
2017-10-18T10:20:37.412Z,24.15
2017-10-18T10:23:04.017Z,21.92
2017-10-18T10:25:30.637Z,24.23
2017-10-18T10:27:57.263Z,24.05
2017-10-18T10:30:23.874Z,22.73
2017-10-18T10:32:50.489Z,22.35
2017-10-18T10:35:18.003Z,25.25
2017-10-18T10:37:45.256Z,23.80
2017-10-18T10:40:12.716Z,26.23
2017-10-18T10:42:40.174Z,22.40
2017-10-18T10:45:07.632Z,23.80
2017-10-18T10:47:36.010Z,21.58
2017-10-18T10:50:03.165Z,21.23
2017-10-18T10:52:30.417Z,23.20
2017-10-18T10:54:58.291Z,22.20
2017-10-18T10:57:25.640Z,20.83
2017-10-18T10:59:52.830Z,21.67
2017-10-18T11:02:20.557Z,21.23
2017-10-18T11:04:47.810Z,19.02
2017-10-18T11:07:14.997Z,19.87
2017-10-18T11:09:42.827Z,17.30
2017-10-18T11:12:10.594Z,18.98
2017-10-18T11:14:37.259Z,18.25
2017-10-18T11:17:03.930Z,19.05
2017-10-18T11:19:30.541Z,18.23
2017-10-18T11:21:57.153Z,18.05
2017-10-18T11:24:23.850Z,17.50
2017-10-18T11:26:50.463Z,19.40
2017-10-18T11:29:17.073Z,19.02
2017-10-18T11:31:43.705Z,17.92
2017-10-18T11:34:10.409Z,17.75
2017-10-18T11:36:37.021Z,18.55
2017-10-18T11:39:03.651Z,18.70
2017-10-18T11:41:30.316Z,19.58
2017-10-18T11:43:56.927Z,18.15
2017-10-18T11:46:23.549Z,19.12
2017-10-18T11:48:50.163Z,15.77
2017-10-18T11:51:16.773Z,17.52
2017-10-18T11:53:43.459Z,16.02
2017-10-18T11:56:10.076Z,16.50
2017-10-18T11:58:36.793Z,17.87
2017-10-18T12:01:03.413Z,17.50
2017-10-18T12:03:30.032Z,13.85
2017-10-18T12:05:56.714Z,18.73
2017-10-18T12:08:23.334Z,17.80
2017-10-18T12:10:49.947Z,17.35
2017-10-18T12:13:16.595Z,17.98
2017-10-18T12:15:43.307Z,15.82
2017-10-18T12:18:09.957Z,15.82
2017-10-18T12:20:36.588Z,18.83
2017-10-18T12:23:03.198Z,17.12
2017-10-18T12:25:29.817Z,18.27
2017-10-18T12:27:56.445Z,17.80
2017-10-18T12:30:23.058Z,16.55
2017-10-18T12:32:49.674Z,15.75
2017-10-18T12:35:16.302Z,16.42
2017-10-18T12:37:43.018Z,14.90
2017-10-18T12:40:09.654Z,16.10
2017-10-18T12:42:36.883Z,14.30
2017-10-18T12:45:03.599Z,13.93
2017-10-18T12:47:30.746Z,13.52
2017-10-18T12:49:57.423Z,12.43
2017-10-18T12:52:24.042Z,10.50
2017-10-18T12:54:50.726Z,13.97
2017-10-18T12:57:17.341Z,13.07
2017-10-18T12:59:44.034Z,12.17
2017-10-18T13:02:10.668Z,14.20
2017-10-18T13:04:37.279Z,13.67
2017-10-18T13:07:03.913Z,11.70
2017-10-18T13:09:30.552Z,12.33
2017-10-18T13:11:57.198Z,11.73
2017-10-18T13:14:23.801Z,12.13
2017-10-18T13:16:50.517Z,11.87
2017-10-18T13:19:17.126Z,13.53
2017-10-18T13:21:43.733Z,12.90
2017-10-18T13:24:10.364Z,12.37
2017-10-18T13:26:36.975Z,13.63
2017-10-18T13:29:03.586Z,12.80
2017-10-18T13:31:30.215Z,13.33
2017-10-18T13:33:56.839Z,13.03
2017-10-18T13:36:23.494Z,13.90
2017-10-18T13:38:50.114Z,14.00
2017-10-18T13:41:16.808Z,15.55
2017-10-18T13:43:43.499Z,13.98
2017-10-18T13:46:10.136Z,14.10
2017-10-18T13:48:36.789Z,13.75
2017-10-18T13:51:03.418Z,14.15
2017-10-18T13:53:30.032Z,14.20
2017-10-18T13:55:56.697Z,15.05
2017-10-18T13:58:23.317Z,16.33
2017-10-18T14:00:49.934Z,17.77
2017-10-18T14:03:16.614Z,15.85
2017-10-18T14:05:43.234Z,15.10
2017-10-18T14:08:09.847Z,15.35
2017-10-18T14:10:36.530Z,14.57
2017-10-18T14:13:03.154Z,14.98
2017-10-18T14:15:29.767Z,14.87
2017-10-18T14:17:56.373Z,15.30
2017-10-18T14:20:23.131Z,16.65
2017-10-18T14:28:42.842Z,15.32
2017-10-18T14:31:09.459Z,15.27
2017-10-18T14:33:36.128Z,14.48
2017-10-18T14:36:02.754Z,14.18
2017-10-18T14:38:29.365Z,22.62
2017-10-18T14:40:56.202Z,15.40
2017-10-18T14:43:49.410Z,14.75
2017-10-18T14:46:16.025Z,13.80
2017-10-18T14:48:42.648Z,14.50
2017-10-18T14:51:09.272Z,14.48
2017-10-18T14:53:35.881Z,15.27
2017-10-18T14:56:02.490Z,14.38
2017-10-18T14:58:29.123Z,14.18
2017-10-18T15:00:55.739Z,14.80
2017-10-18T15:03:22.355Z,13.88
2017-10-18T15:05:48.976Z,13.52
2017-10-18T15:08:15.585Z,14.87
2017-10-18T15:10:42.202Z,14.85
2017-10-18T15:13:08.821Z,17.10
2017-10-18T15:15:35.479Z,14.70
2017-10-18T15:18:02.139Z,14.45
2017-10-18T15:20:28.755Z,14.65
2017-10-18T15:22:55.385Z,14.48
2017-10-18T15:25:22.027Z,15.15
2017-10-18T15:27:48.638Z,12.30
2017-10-18T15:30:15.248Z,13.37
2017-10-18T15:32:41.870Z,13.67
2017-10-18T15:35:08.478Z,11.80
2017-10-18T15:37:35.091Z,12.87
2017-10-18T15:40:01.719Z,13.63
2017-10-18T15:42:28.399Z,11.40
2017-10-18T15:44:55.042Z,13.47
2017-10-18T15:47:21.671Z,14.57
2017-10-18T15:49:49.037Z,14.07
2017-10-18T15:52:15.638Z,13.73
2017-10-18T15:54:42.263Z,14.47
2017-10-18T15:57:08.934Z,15.82
2017-10-18T15:59:35.545Z,15.15
2017-10-18T16:02:02.175Z,15.10
2017-10-18T16:04:28.792Z,15.18
2017-10-18T16:06:55.506Z,15.25
2017-10-18T16:09:22.245Z,15.45
2017-10-18T16:11:48.858Z,15.52
2017-10-18T16:14:15.470Z,15.57
2017-10-18T16:16:42.103Z,16.77
2017-10-18T16:19:08.715Z,14.32
2017-10-18T16:21:35.334Z,14.40
2017-10-18T16:24:01.950Z,15.05
2017-10-18T16:26:28.571Z,15.40
2017-10-18T16:28:55.260Z,16.77
2017-10-18T16:31:21.863Z,16.77
2017-10-18T16:33:48.474Z,16.92
2017-10-18T16:36:15.104Z,17.87
2017-10-18T16:38:41.717Z,19.50
2017-10-18T16:41:08.334Z,17.83
2017-10-18T16:43:34.986Z,18.45
2017-10-18T16:46:01.595Z,16.23
2017-10-18T16:48:28.201Z,19.10
2017-10-18T16:50:54.829Z,17.58
2017-10-18T16:53:21.448Z,17.83
2017-10-18T16:55:48.055Z,16.15
2017-10-18T16:58:14.719Z,16.95
2017-10-18T17:00:41.358Z,15.73
2017-10-18T17:03:07.981Z,16.27
2017-10-18T17:05:34.593Z,15.70
2017-10-18T17:08:01.212Z,15.98
2017-10-18T17:10:27.913Z,14.55
2017-10-18T17:12:54.524Z,18.65
2017-10-18T17:15:21.135Z,20.45
2017-10-18T17:17:47.828Z,16.25
2017-10-18T17:20:14.435Z,14.55
2017-10-18T17:22:41.051Z,15.90
2017-10-18T17:25:07.669Z,15.90
2017-10-18T17:27:34.387Z,15.32
2017-10-18T17:30:01.001Z,15.18
2017-10-18T17:32:27.630Z,14.43
2017-10-18T17:34:54.302Z,14.43
2017-10-18T17:37:20.947Z,13.88
2017-10-18T17:39:47.581Z,15.73
2017-10-18T17:42:14.190Z,14.55
2017-10-18T17:44:40.802Z,17.08
2017-10-18T17:47:07.425Z,16.45
2017-10-18T17:49:34.038Z,15.95
2017-10-18T17:52:00.650Z,17.42
2017-10-18T17:54:27.359Z,18.37
2017-10-18T17:56:53.966Z,18.00
2017-10-18T17:59:20.579Z,19.67
2017-10-18T18:01:47.206Z,21.67
2017-10-18T18:04:13.870Z,16.67
2017-10-18T18:06:40.478Z,19.30
2017-10-18T18:09:07.098Z,19.58
2017-10-18T18:11:33.709Z,28.00
2017-10-18T18:14:00.326Z,39.35
2017-10-18T18:16:26.938Z,33.88
2017-10-18T18:18:53.567Z,30.52
2017-10-18T18:21:20.174Z,24.20
2017-10-18T18:23:46.777Z,24.37
2017-10-18T18:26:13.402Z,20.85
2017-10-18T18:28:40.019Z,21.48
